Chase, Maryland
Current Conditions -  °F | °C
As of 11:45 AM on Sunday 23 Nov 2014 (Local Time) from KMTN Reporting Station
Scattered Clouds Scattered Clouds  
Wind Chill: 46°   Ceiling: Unl
Heat Index: 48°   Visibility: 10mi
Dew Point: 27°   Wind: 5mph
Humidity: 43%   Direction: 170°S
Pressure: 30.2"   Gusts: NA
Location:  39.36°N, 76.37°W
Report Text: KMTN 231645Z 17004KT 10SM SCT180 09/M03 A3020
Loading
Personal Weather Stations






























Interactive Weather Map New forecast layout! Learn more

10-Day Weather Forecast

Advertisements
Track Severe Weather on mobile